createdAt,value
2023-10-14T00:00:40.339Z,98951.75
2023-10-14T00:03:25.689Z,98950.44
2023-10-14T00:05:56.027Z,98955.31
2023-10-14T00:08:33.235Z,98948.69
2023-10-14T00:11:08.440Z,98950.06
2023-10-14T00:13:43.593Z,98936.19
2023-10-14T00:16:25.937Z,98936.69
2023-10-14T00:18:57.068Z,98940.06
2023-10-14T00:21:28.046Z,98942.59
2023-10-14T00:24:02.925Z,98946.09
2023-10-14T00:26:33.999Z,98946.09
2023-10-14T00:29:21.498Z,98957.97
2023-10-14T00:31:52.980Z,98985.41
2023-10-14T00:34:26.616Z,98986.66
2023-10-14T00:36:57.643Z,98973.34
2023-10-14T00:39:33.049Z,98981.94
2023-10-14T00:42:04.318Z,98989.97
2023-10-14T00:44:35.022Z,98968.91
2023-10-14T00:47:08.970Z,98979.50
2023-10-14T00:49:44.143Z,98983.72
2023-10-14T00:52:21.063Z,98977.69
2023-10-14T00:55:02.468Z,98984.84
2023-10-14T00:57:40.831Z,98982.91
2023-10-14T01:00:14.110Z,98985.97
2023-10-14T01:02:48.766Z,98984.41
2023-10-14T01:05:21.404Z,98989.06
2023-10-14T01:07:52.144Z,98982.03
2023-10-14T01:10:29.250Z,98979.38
2023-10-14T01:12:57.449Z,98987.38
2023-10-14T01:15:32.631Z,98991.75
2023-10-14T01:18:03.107Z,98986.25
2023-10-14T01:20:39.829Z,98985.13
2023-10-14T01:23:15.665Z,98986.41
2023-10-14T01:25:48.911Z,98985.00
2023-10-14T01:28:22.817Z,98983.56
2023-10-14T01:31:12.716Z,98988.53
2023-10-14T01:33:43.115Z,98987.25
2023-10-14T01:36:13.176Z,98981.47
2023-10-14T01:38:52.352Z,98975.81
2023-10-14T01:41:23.812Z,98980.75
2023-10-14T01:43:53.957Z,98979.63
2023-10-14T01:46:28.696Z,98985.13
2023-10-14T01:49:09.773Z,98988.50
2023-10-14T01:51:39.946Z,98978.94
2023-10-14T01:54:13.798Z,98992.63
2023-10-14T01:56:43.631Z,99003.41
2023-10-14T01:59:14.266Z,99000.16
2023-10-14T02:01:45.450Z,99000.16
2023-10-14T02:04:17.216Z,99005.47
2023-10-14T02:07:03.163Z,99015.03
2023-10-14T02:09:37.397Z,99028.22
2023-10-14T02:12:07.963Z,99028.06
2023-10-14T02:14:38.558Z,99061.81
2023-10-14T02:17:11.450Z,99071.00
2023-10-14T02:19:43.251Z,99087.47
2023-10-14T02:22:13.660Z,99090.41
2023-10-14T02:24:46.166Z,99106.06
2023-10-14T02:27:16.025Z,99125.75
2023-10-14T02:29:48.181Z,99141.50
2023-10-14T02:32:21.740Z,99136.38
2023-10-14T02:34:52.541Z,99155.34
2023-10-14T02:37:23.205Z,99156.31
2023-10-14T02:39:55.761Z,99166.09
2023-10-14T02:42:26.741Z,99164.13
2023-10-14T02:44:56.545Z,99174.38
2023-10-14T02:47:28.259Z,99172.03
2023-10-14T02:50:06.924Z,99186.53
2023-10-14T02:52:40.740Z,99185.91
2023-10-14T02:55:23.998Z,99195.91
2023-10-14T02:57:54.001Z,99200.63
2023-10-14T03:00:30.687Z,99206.78
2023-10-14T03:03:04.368Z,99223.78
2023-10-14T03:05:38.154Z,99228.28
2023-10-14T03:08:15.045Z,99237.22
2023-10-14T03:10:55.720Z,99254.00
2023-10-14T03:13:26.540Z,99259.13
2023-10-14T03:15:56.961Z,99264.31
2023-10-14T03:18:38.956Z,99259.72
2023-10-14T03:21:11.035Z,99270.22
2023-10-14T03:23:43.304Z,99267.38
2023-10-14T03:26:16.700Z,99284.16
2023-10-14T03:28:52.051Z,99289.47
2023-10-14T03:31:26.020Z,99291.31
2023-10-14T03:34:00.243Z,99304.59
2023-10-14T03:36:33.019Z,99324.91
2023-10-14T03:39:19.186Z,99352.47
2023-10-14T03:41:54.150Z,99355.31
2023-10-14T03:44:26.305Z,99369.38
2023-10-14T03:47:01.395Z,99381.66
2023-10-14T03:49:34.253Z,99388.53
2023-10-14T03:52:04.394Z,99405.88
2023-10-14T03:54:43.039Z,99429.47
2023-10-14T03:57:20.966Z,99438.06
2023-10-14T03:59:50.915Z,99435.09
2023-10-14T04:02:26.611Z,99450.41
2023-10-14T04:05:09.286Z,99470.06
2023-10-14T04:07:42.057Z,99484.50
2023-10-14T04:10:13.511Z,99486.69
2023-10-14T04:12:54.747Z,99499.19
2023-10-14T04:15:46.928Z,99505.28
2023-10-14T04:18:23.278Z,99515.75
2023-10-14T04:21:12.317Z,99516.13
2023-10-14T04:23:44.862Z,99524.38
2023-10-14T04:26:15.846Z,99528.34
2023-10-14T04:29:00.240Z,99530.34
2023-10-14T04:31:42.536Z,99533.28
2023-10-14T04:34:16.419Z,99538.69
2023-10-14T04:36:55.328Z,99552.88
2023-10-14T04:39:34.063Z,99553.75
2023-10-14T04:42:16.414Z,99554.81
2023-10-14T04:45:00.651Z,99566.56
2023-10-14T04:47:39.888Z,99568.53
2023-10-14T04:50:15.032Z,99583.59
2023-10-14T04:52:49.877Z,99593.38
2023-10-14T04:55:26.869Z,99594.41
2023-10-14T04:58:09.904Z,99598.94
2023-10-14T05:00:46.893Z,99604.34
2023-10-14T05:03:20.503Z,99614.09
2023-10-14T05:05:53.525Z,99626.41
2023-10-14T05:08:25.582Z,99637.97
2023-10-14T05:10:57.965Z,99636.34
2023-10-14T05:13:33.259Z,99644.56
2023-10-14T05:16:22.699Z,99651.47
2023-10-14T05:19:07.309Z,99659.28
2023-10-14T05:21:44.774Z,99668.06
2023-10-14T05:24:16.286Z,99672.44
2023-10-14T05:26:48.570Z,99674.84
2023-10-14T05:29:21.205Z,99678.09
2023-10-14T05:31:54.617Z,99690.06
2023-10-14T05:34:26.360Z,99689.72
2023-10-14T05:36:57.373Z,99693.56
2023-10-14T05:39:29.077Z,99692.00
2023-10-14T05:42:05.231Z,99702.59
2023-10-14T05:44:35.027Z,99710.31
2023-10-14T05:47:08.812Z,99710.31
2023-10-14T05:49:39.190Z,99717.56
2023-10-14T05:52:10.279Z,99722.16
2023-10-14T05:54:40.070Z,99732.16
2023-10-14T05:57:11.360Z,99729.72
2023-10-14T05:59:42.722Z,99737.03
2023-10-14T06:02:15.598Z,99749.50
2023-10-14T06:04:47.317Z,99761.03
2023-10-14T06:07:19.701Z,99768.13
2023-10-14T06:09:52.868Z,99777.91
2023-10-14T06:12:25.945Z,99779.81
2023-10-14T06:14:57.600Z,99785.94
2023-10-14T06:17:40.506Z,99792.03
2023-10-14T06:20:15.802Z,99794.66
2023-10-14T06:22:47.951Z,99799.97
2023-10-14T06:25:22.619Z,99800.81
2023-10-14T06:27:55.281Z,99806.09
2023-10-14T06:30:26.862Z,99813.13
2023-10-14T06:33:05.637Z,99818.31
2023-10-14T06:35:44.058Z,99820.63
2023-10-14T06:38:19.632Z,99822.28
2023-10-14T06:40:54.794Z,99823.22
2023-10-14T06:43:29.524Z,99833.31
2023-10-14T06:46:01.494Z,99841.09
2023-10-14T06:48:40.268Z,99842.13
2023-10-14T06:51:22.530Z,99844.16
2023-10-14T06:53:57.157Z,99852.25
2023-10-14T06:56:29.433Z,99854.63
2023-10-14T06:59:22.027Z,99861.69
2023-10-14T07:01:54.860Z,99866.59
2023-10-14T07:04:29.194Z,99867.09
2023-10-14T07:07:01.471Z,99868.50
2023-10-14T07:09:33.260Z,99863.38
2023-10-14T07:12:08.806Z,99868.38
2023-10-14T07:14:43.976Z,99872.94
2023-10-14T07:17:19.937Z,99866.72
2023-10-14T07:19:57.510Z,99882.94
2023-10-14T07:22:32.022Z,99883.59
2023-10-14T07:25:14.652Z,99891.22
2023-10-14T07:27:48.704Z,99892.34
2023-10-14T07:30:29.862Z,99894.41
2023-10-14T07:33:08.263Z,99897.91
2023-10-14T07:35:45.588Z,99906.59
2023-10-14T07:38:16.874Z,99911.22
2023-10-14T07:41:00.475Z,99914.41
2023-10-14T07:43:36.880Z,99923.78
2023-10-14T07:46:08.278Z,99917.44
2023-10-14T07:48:42.190Z,99926.16
2023-10-14T07:51:30.006Z,99930.63
2023-10-14T07:54:14.193Z,99931.28
2023-10-14T07:56:44.514Z,99940.06
2023-10-14T07:59:15.787Z,99942.72
2023-10-14T08:01:47.168Z,99951.38
2023-10-14T08:04:19.569Z,99950.97
2023-10-14T08:06:52.233Z,99960.00
2023-10-14T08:09:30.121Z,99956.16
2023-10-14T08:12:00.740Z,99962.88
2023-10-14T08:14:32.364Z,99965.69
2023-10-14T08:17:02.537Z,99964.28
2023-10-14T08:19:32.423Z,99961.28
2023-10-14T08:22:06.536Z,99974.59
2023-10-14T08:24:36.379Z,99967.84
2023-10-14T08:27:06.382Z,99969.34
2023-10-14T08:29:36.429Z,99964.59
2023-10-14T08:32:07.520Z,99982.25
2023-10-14T08:34:37.767Z,99989.00
2023-10-14T08:37:12.247Z,99996.25
2023-10-14T08:39:42.029Z,99998.78
2023-10-14T08:42:13.663Z,100003.00
2023-10-14T08:44:46.960Z,100006.19
2023-10-14T08:47:17.439Z,100021.25
2023-10-14T08:49:47.806Z,100020.84
2023-10-14T08:52:21.881Z,100023.09
2023-10-14T08:54:52.597Z,100029.84
2023-10-14T08:57:23.408Z,100026.41
2023-10-14T08:59:53.592Z,100025.19
2023-10-14T09:02:24.121Z,100031.13
2023-10-14T09:04:54.041Z,100027.13
2023-10-14T09:07:27.972Z,100043.34
2023-10-14T09:09:57.700Z,100040.38
2023-10-14T09:12:27.779Z,100047.72
2023-10-14T09:14:57.814Z,100044.22
2023-10-14T09:17:29.584Z,100048.38
2023-10-14T09:19:59.542Z,100054.28
2023-10-14T09:22:35.531Z,100061.47
2023-10-14T09:25:05.528Z,100064.13
2023-10-14T09:27:35.703Z,100071.22
2023-10-14T09:30:05.598Z,100068.91
2023-10-14T09:32:36.760Z,100071.00
2023-10-14T09:35:07.233Z,100074.38
2023-10-14T09:37:42.372Z,100064.88
2023-10-14T09:40:14.641Z,100059.78
2023-10-14T09:42:45.934Z,100063.81
2023-10-14T09:45:15.877Z,100057.88
2023-10-14T09:47:48.346Z,100058.41
2023-10-14T09:50:19.311Z,100061.00
2023-10-14T09:52:55.455Z,100065.84
2023-10-14T09:55:25.350Z,100072.31
2023-10-14T09:57:55.308Z,100065.63
2023-10-14T10:00:25.516Z,100067.31
2023-10-14T10:02:55.893Z,100081.28
2023-10-14T10:05:30.002Z,100077.16
2023-10-14T10:08:14.844Z,100083.19
2023-10-14T10:10:45.573Z,100087.22
2023-10-14T10:13:16.251Z,100093.41
2023-10-14T10:15:46.116Z,100090.41
2023-10-14T10:18:17.873Z,100088.97
2023-10-14T10:20:56.836Z,100101.84
2023-10-14T10:23:31.116Z,100099.09
2023-10-14T10:26:04.437Z,100111.00
2023-10-14T10:28:43.746Z,100103.41
2023-10-14T10:31:17.560Z,100109.44
2023-10-14T10:33:48.368Z,100107.59
2023-10-14T10:36:26.047Z,100111.06
2023-10-14T10:38:59.997Z,100115.84
2023-10-14T10:41:31.061Z,100116.16
2023-10-14T10:44:06.491Z,100107.63
2023-10-14T10:46:42.163Z,100119.78
2023-10-14T10:49:14.501Z,100126.81
2023-10-14T10:51:54.767Z,100123.31
2023-10-14T10:54:27.831Z,100125.84
2023-10-14T10:57:07.384Z,100136.50
2023-10-14T10:59:39.528Z,100130.34
2023-10-14T11:02:11.560Z,100131.19
2023-10-14T11:04:43.176Z,100125.59
2023-10-14T11:07:13.805Z,100131.97
2023-10-14T11:09:46.408Z,100128.25
2023-10-14T11:12:16.549Z,100131.56
2023-10-14T11:14:46.418Z,100125.53
2023-10-14T11:17:17.622Z,100125.47
2023-10-14T11:19:48.296Z,100117.00
2023-10-14T11:22:18.338Z,100123.19
2023-10-14T11:24:51.172Z,100116.47
2023-10-14T11:27:21.664Z,100121.72
2023-10-14T11:29:51.789Z,100122.63
2023-10-14T11:32:21.726Z,100115.19
2023-10-14T11:34:54.200Z,100117.72
2023-10-14T11:37:24.115Z,100115.44
2023-10-14T11:39:56.888Z,100116.00
2023-10-14T11:42:26.952Z,100112.03
2023-10-14T11:44:57.597Z,100125.09
2023-10-14T11:47:37.479Z,100128.13
2023-10-14T11:50:12.932Z,100126.88
2023-10-14T11:52:44.182Z,100133.69
2023-10-14T11:55:18.259Z,100135.91
2023-10-14T11:57:49.925Z,100132.66
2023-10-14T12:00:21.704Z,100135.53
2023-10-14T12:02:51.950Z,100137.88
2023-10-14T12:05:22.303Z,100137.94
2023-10-14T12:07:52.892Z,100136.38
2023-10-14T12:10:27.579Z,100125.97
2023-10-14T12:12:57.491Z,100132.19
2023-10-14T12:15:29.030Z,100139.00
2023-10-14T12:17:58.885Z,100134.44
2023-10-14T12:20:30.574Z,100140.75
2023-10-14T12:23:00.442Z,100128.84
2023-10-14T12:25:32.938Z,100128.50
2023-10-14T12:28:02.837Z,100129.75
2023-10-14T12:30:41.176Z,100127.94
2023-10-14T12:33:20.279Z,100132.75
2023-10-14T12:35:52.616Z,100133.44
2023-10-14T12:38:24.227Z,100133.66
2023-10-14T12:40:57.201Z,100135.91
2023-10-14T12:43:34.497Z,100141.06
2023-10-14T12:46:14.133Z,100137.44
2023-10-14T12:48:46.862Z,100133.59
2023-10-14T12:51:19.969Z,100156.69
2023-10-14T12:53:49.953Z,100151.00
2023-10-14T12:56:24.115Z,100150.69
2023-10-14T12:58:53.925Z,100152.94
2023-10-14T13:01:23.998Z,100145.22
2023-10-14T13:03:58.210Z,100140.50
2023-10-14T13:06:29.435Z,100157.16
2023-10-14T13:09:00.795Z,100155.25
2023-10-14T13:11:35.541Z,100167.22
2023-10-14T13:14:05.348Z,100159.91
2023-10-14T13:16:35.727Z,100167.44
2023-10-14T13:19:06.124Z,100157.06
2023-10-14T13:21:42.353Z,100159.31
2023-10-14T13:24:13.369Z,100170.69
2023-10-14T13:26:46.642Z,100175.38
2023-10-14T13:29:16.436Z,100170.69
2023-10-14T13:31:47.854Z,100176.63
2023-10-14T13:34:20.028Z,100181.38
2023-10-14T13:36:57.775Z,100181.13
2023-10-14T13:39:36.892Z,100180.47
2023-10-14T13:42:09.958Z,100182.59
2023-10-14T13:44:40.127Z,100187.69
2023-10-14T13:47:10.052Z,100186.84
2023-10-14T13:49:43.980Z,100194.00
2023-10-14T13:52:15.979Z,100182.66
2023-10-14T13:54:45.907Z,100184.19
2023-10-14T13:57:19.367Z,100177.59
2023-10-14T13:59:49.183Z,100191.63
2023-10-14T14:02:20.898Z,100195.38
2023-10-14T14:04:50.937Z,100198.56
2023-10-14T14:07:20.962Z,100202.56
2023-10-14T14:09:51.193Z,100204.09
2023-10-14T14:12:23.622Z,100206.75
2023-10-14T14:14:54.304Z,100218.75
2023-10-14T14:17:27.110Z,100227.63
2023-10-14T14:19:57.307Z,100226.59
2023-10-14T14:22:27.424Z,100229.66
2023-10-14T14:24:57.255Z,100232.88
2023-10-14T14:27:29.602Z,100227.75
2023-10-14T14:29:59.463Z,100232.88
2023-10-14T14:32:30.394Z,100233.25
2023-10-14T14:35:00.521Z,100234.22
2023-10-14T14:37:34.187Z,100226.13
2023-10-14T14:40:13.411Z,100230.84
2023-10-14T14:42:46.874Z,100223.38
2023-10-14T14:45:24.209Z,100233.19
2023-10-14T14:47:55.222Z,100238.78
2023-10-14T14:50:27.656Z,100231.91
2023-10-14T14:52:58.669Z,100249.66
2023-10-14T14:55:31.082Z,100254.88
2023-10-14T14:58:03.625Z,100253.69
2023-10-14T15:00:33.372Z,100260.09
2023-10-14T15:03:06.702Z,100262.56
2023-10-14T15:05:37.619Z,100264.94
2023-10-14T15:08:12.260Z,100270.00
2023-10-14T15:10:44.157Z,100264.69
2023-10-14T15:13:18.679Z,100269.13
2023-10-14T15:15:51.842Z,100268.63
2023-10-14T15:18:23.629Z,100278.78
2023-10-14T15:20:53.520Z,100286.19
2023-10-14T15:23:24.065Z,100280.38
2023-10-14T15:25:53.903Z,100287.75
2023-10-14T15:28:26.327Z,100288.88
2023-10-14T15:30:56.173Z,100287.41
2023-10-14T15:33:25.975Z,100288.53
2023-10-14T15:35:55.826Z,100291.38
2023-10-14T15:38:25.579Z,100296.84
2023-10-14T15:40:55.510Z,100290.75
2023-10-14T15:43:29.306Z,100306.03
2023-10-14T15:46:03.254Z,100304.38
2023-10-14T15:48:35.111Z,100299.25
2023-10-14T15:51:04.921Z,100304.91
2023-10-14T15:53:34.908Z,100306.97
2023-10-14T15:56:04.680Z,100318.81
2023-10-14T15:58:40.997Z,100302.66
2023-10-14T16:01:11.605Z,100303.50
2023-10-14T16:03:41.673Z,100300.03
2023-10-14T16:06:12.642Z,100310.69
2023-10-14T16:08:42.713Z,100321.16
2023-10-14T16:11:16.244Z,100326.34
2023-10-14T16:13:48.873Z,100330.53
2023-10-14T16:16:19.759Z,100332.78
2023-10-14T16:18:52.177Z,100329.66
2023-10-14T16:21:24.087Z,100326.38
2023-10-14T16:23:54.633Z,100336.41
2023-10-14T16:26:24.493Z,100346.53
2023-10-14T16:29:04.453Z,100345.19
2023-10-14T16:31:36.568Z,100351.88
2023-10-14T16:34:06.564Z,100361.97
2023-10-14T16:36:36.361Z,100360.63
2023-10-14T16:39:10.649Z,100365.44
2023-10-14T16:41:41.602Z,100369.41
2023-10-14T16:44:14.084Z,100383.00
2023-10-14T16:46:44.922Z,100378.16
2023-10-14T16:49:15.011Z,100382.94
2023-10-14T16:51:44.916Z,100384.19
2023-10-14T16:54:14.825Z,100389.81
2023-10-14T16:56:46.974Z,100395.41
2023-10-14T16:59:19.620Z,100391.94
2023-10-14T17:01:49.520Z,100400.69
2023-10-14T17:04:20.082Z,100405.84
2023-10-14T17:06:50.007Z,100408.34
2023-10-14T17:09:21.223Z,100414.59
2023-10-14T17:11:51.460Z,100420.00
2023-10-14T17:14:30.313Z,100426.19
2023-10-14T17:17:00.549Z,100434.84
2023-10-14T17:19:30.471Z,100440.94
2023-10-14T17:22:01.280Z,100436.63
2023-10-14T17:24:31.198Z,100438.59
2023-10-14T17:27:01.386Z,100439.88
2023-10-14T17:29:35.066Z,100442.72
2023-10-14T17:32:09.953Z,100450.88
2023-10-14T17:34:40.233Z,100450.22
2023-10-14T17:37:11.768Z,100451.31
2023-10-14T17:39:41.855Z,100457.00
2023-10-14T17:42:15.162Z,100466.25
2023-10-14T17:44:48.239Z,100477.19
2023-10-14T17:47:21.996Z,100477.53
2023-10-14T17:49:52.997Z,100474.34
2023-10-14T17:52:23.634Z,100480.66
2023-10-14T17:54:59.790Z,100482.41
2023-10-14T17:57:51.850Z,100484.00
2023-10-14T18:00:32.540Z,100482.91
2023-10-14T18:03:13.282Z,100489.59
2023-10-14T18:05:48.189Z,100486.66
2023-10-14T18:08:18.129Z,100497.00
2023-10-14T18:10:53.561Z,100489.84
2023-10-14T18:13:28.907Z,100492.44
2023-10-14T18:16:05.096Z,100500.44
2023-10-14T18:18:45.960Z,100498.78
2023-10-14T18:21:24.922Z,100503.28
2023-10-14T18:23:59.854Z,100509.38
2023-10-14T18:26:30.058Z,100508.31
2023-10-14T18:29:02.276Z,100511.72
2023-10-14T18:31:38.134Z,100520.41
2023-10-14T18:34:10.349Z,100521.13
2023-10-14T18:36:44.817Z,100521.88
2023-10-14T18:39:16.070Z,100525.31
2023-10-14T18:41:54.831Z,100533.19
2023-10-14T18:44:30.080Z,100528.78
2023-10-14T18:47:03.628Z,100531.47
2023-10-14T18:49:35.664Z,100536.72
2023-10-14T18:52:12.759Z,100542.00
2023-10-14T18:54:43.752Z,100549.81
2023-10-14T18:57:14.598Z,100554.13
2023-10-14T18:59:45.962Z,100554.06
2023-10-14T19:02:31.539Z,100552.16
2023-10-14T19:05:04.517Z,100560.97
2023-10-14T19:07:34.814Z,100555.66
2023-10-14T19:10:09.587Z,100557.41
2023-10-14T19:12:39.722Z,100563.59
2023-10-14T19:15:23.712Z,100554.88
2023-10-14T19:17:59.690Z,100562.88
2023-10-14T19:20:30.459Z,100559.41
2023-10-14T19:23:15.462Z,100560.28
2023-10-14T19:25:55.187Z,100558.56
2023-10-14T19:28:28.055Z,100567.44
2023-10-14T19:31:02.597Z,100568.41
2023-10-14T19:33:37.141Z,100566.75
2023-10-14T19:36:15.004Z,100563.47
2023-10-14T19:38:46.780Z,100564.78
2023-10-14T19:41:20.884Z,100558.03
2023-10-14T19:43:51.169Z,100563.66
2023-10-14T19:46:24.781Z,100566.44
2023-10-14T19:49:03.279Z,100557.78
2023-10-14T19:51:34.520Z,100564.06
2023-10-14T19:54:10.087Z,100569.56
2023-10-14T19:56:47.283Z,100562.72
2023-10-14T19:59:17.408Z,100568.28
2023-10-14T20:01:48.938Z,100575.75
2023-10-14T20:04:22.277Z,100581.47
2023-10-14T20:07:01.210Z,100580.25
2023-10-14T20:09:34.306Z,100580.72
2023-10-14T20:12:10.730Z,100580.28
2023-10-14T20:14:48.543Z,100579.00
2023-10-14T20:17:22.991Z,100587.38
2023-10-14T20:19:56.582Z,100589.44
2023-10-14T20:22:28.697Z,100594.06
2023-10-14T20:25:03.096Z,100591.75
2023-10-14T20:27:33.286Z,100605.16
2023-10-14T20:30:11.900Z,100604.53
2023-10-14T20:33:08.813Z,100612.66
2023-10-14T20:35:44.048Z,100610.34
2023-10-14T20:38:19.624Z,100615.94
2023-10-14T20:40:51.433Z,100612.56
2023-10-14T20:43:29.020Z,100631.13
2023-10-14T20:46:00.353Z,100619.00
2023-10-14T20:48:30.729Z,100620.09
2023-10-14T20:51:05.886Z,100621.13
2023-10-14T20:53:37.200Z,100625.69
2023-10-14T20:56:21.486Z,100631.91
2023-10-14T20:58:55.587Z,100623.31
2023-10-14T21:01:27.964Z,100622.56
2023-10-14T21:03:58.212Z,100620.03
2023-10-14T21:06:38.237Z,100625.38
2023-10-14T21:09:11.212Z,100628.97
2023-10-14T21:11:41.687Z,100635.19
2023-10-14T21:14:11.872Z,100635.28
2023-10-14T21:16:49.629Z,100641.44
2023-10-14T21:19:23.134Z,100645.88
2023-10-14T21:21:58.034Z,100643.31
2023-10-14T21:24:28.882Z,100644.31
2023-10-14T21:27:11.091Z,100640.88
2023-10-14T21:29:41.733Z,100636.53
2023-10-14T21:32:18.777Z,100649.75
2023-10-14T21:34:49.277Z,100651.53
2023-10-14T21:37:26.717Z,100653.41
2023-10-14T21:39:59.287Z,100650.06
2023-10-14T21:42:29.821Z,100648.31
2023-10-14T21:45:02.964Z,100645.72
2023-10-14T21:47:37.941Z,100644.00
2023-10-14T21:50:12.940Z,100637.94
2023-10-14T21:52:45.574Z,100645.88
2023-10-14T21:55:20.801Z,100638.91
2023-10-14T21:57:51.121Z,100640.78
2023-10-14T22:00:25.766Z,100640.81
2023-10-14T22:02:58.226Z,100647.06
2023-10-14T22:05:30.889Z,100638.41
2023-10-14T22:08:06.540Z,100634.09
2023-10-14T22:10:37.336Z,100634.19
2023-10-14T22:13:11.567Z,100638.72
2023-10-14T22:15:46.753Z,100636.16
2023-10-14T22:18:17.096Z,100638.03
2023-10-14T22:20:47.132Z,100634.63
2023-10-14T22:23:22.054Z,100626.78
2023-10-14T22:25:53.690Z,100626.03
2023-10-14T22:28:23.967Z,100623.44
2023-10-14T22:30:59.657Z,100618.22
2023-10-14T22:33:32.663Z,100626.16
2023-10-14T22:36:03.834Z,100621.81
2023-10-14T22:38:38.993Z,100623.66
2023-10-14T22:41:10.226Z,100622.84
2023-10-14T22:43:42.115Z,100614.16
2023-10-14T22:46:12.762Z,100611.63
2023-10-14T22:48:45.380Z,100615.22
2023-10-14T22:51:18.391Z,100609.19
2023-10-14T22:53:51.618Z,100609.25
2023-10-14T22:56:21.512Z,100618.06
2023-10-14T22:58:53.492Z,100622.56
2023-10-14T23:01:30.658Z,100621.69
2023-10-14T23:04:01.948Z,100621.78
2023-10-14T23:06:32.226Z,100621.84
2023-10-14T23:09:06.114Z,100617.56
2023-10-14T23:11:37.792Z,100618.59
2023-10-14T23:14:08.736Z,100620.44
2023-10-14T23:16:38.996Z,100627.50
2023-10-14T23:19:11.875Z,100621.41
2023-10-14T23:21:45.502Z,100629.28
2023-10-14T23:24:18.751Z,100635.47
2023-10-14T23:26:48.906Z,100633.75
2023-10-14T23:29:22.138Z,100629.44
2023-10-14T23:31:53.025Z,100639.97
2023-10-14T23:34:26.056Z,100632.13
2023-10-14T23:36:57.127Z,100627.81
2023-10-14T23:39:33.081Z,100628.72
2023-10-14T23:42:03.266Z,100627.03
2023-10-14T23:44:33.189Z,100624.47
2023-10-14T23:47:03.642Z,100622.78
2023-10-14T23:49:34.022Z,100625.38
2023-10-14T23:52:05.245Z,100620.16
2023-10-14T23:54:40.787Z,100622.81
2023-10-14T23:57:12.080Z,100624.63
2023-10-14T23:59:51.486Z,100623.75
